sensor_id;sensor_type;location;lat;lon;timestamp;P1;durP1;ratioP1;P2;durP2;ratioP2
63653;SDS011;49809;47.418;19.080;2023-11-19T00:02:19;10.80;;;4.82;;
63653;SDS011;49809;47.418;19.080;2023-11-19T00:06:02;9.45;;;4.32;;
63653;SDS011;49809;47.418;19.080;2023-11-19T00:09:33;10.57;;;4.72;;
63653;SDS011;49809;47.418;19.080;2023-11-19T00:13:09;9.02;;;4.43;;
63653;SDS011;49809;47.418;19.080;2023-11-19T00:16:44;14.35;;;5.18;;
63653;SDS011;49809;47.418;19.080;2023-11-19T00:20:41;10.60;;;4.95;;
63653;SDS011;49809;47.418;19.080;2023-11-19T00:24:28;12.25;;;5.15;;
63653;SDS011;49809;47.418;19.080;2023-11-19T00:27:50;10.43;;;5.37;;
63653;SDS011;49809;47.418;19.080;2023-11-19T00:31:12;11.63;;;5.82;;
63653;SDS011;49809;47.418;19.080;2023-11-19T00:34:36;15.35;;;6.62;;
63653;SDS011;49809;47.418;19.080;2023-11-19T00:38:02;12.70;;;5.45;;
63653;SDS011;49809;47.418;19.080;2023-11-19T00:41:42;13.00;;;6.68;;
63653;SDS011;49809;47.418;19.080;2023-11-19T00:45:11;10.15;;;5.35;;
63653;SDS011;49809;47.418;19.080;2023-11-19T00:48:48;12.05;;;5.35;;
63653;SDS011;49809;47.418;19.080;2023-11-19T00:52:26;12.77;;;5.40;;
63653;SDS011;49809;47.418;19.080;2023-11-19T00:55:41;10.52;;;5.55;;
63653;SDS011;49809;47.418;19.080;2023-11-19T00:59:22;10.48;;;5.32;;
63653;SDS011;49809;47.418;19.080;2023-11-19T01:03:17;14.40;;;5.75;;
63653;SDS011;49809;47.418;19.080;2023-11-19T01:06:53;10.77;;;5.10;;
63653;SDS011;49809;47.418;19.080;2023-11-19T01:10:27;10.27;;;5.25;;
63653;SDS011;49809;47.418;19.080;2023-11-19T01:13:38;12.93;;;5.82;;
63653;SDS011;49809;47.418;19.080;2023-11-19T01:17:14;11.02;;;5.25;;
63653;SDS011;49809;47.418;19.080;2023-11-19T01:20:53;9.95;;;5.03;;
63653;SDS011;49809;47.418;19.080;2023-11-19T01:24:39;10.32;;;4.90;;
63653;SDS011;49809;47.418;19.080;2023-11-19T01:28:48;10.27;;;5.22;;
63653;SDS011;49809;47.418;19.080;2023-11-19T01:36:35;9.23;;;4.35;;
63653;SDS011;49809;47.418;19.080;2023-11-19T01:40:12;9.82;;;5.37;;
63653;SDS011;49809;47.418;19.080;2023-11-19T01:43:59;9.77;;;5.20;;
63653;SDS011;49809;47.418;19.080;2023-11-19T01:47:23;12.63;;;5.25;;
63653;SDS011;49809;47.418;19.080;2023-11-19T01:51:16;13.07;;;6.25;;
63653;SDS011;49809;47.418;19.080;2023-11-19T01:55:08;12.30;;;5.60;;
63653;SDS011;49809;47.418;19.080;2023-11-19T01:58:37;10.45;;;5.07;;
63653;SDS011;49809;47.418;19.080;2023-11-19T02:02:34;13.07;;;5.80;;
63653;SDS011;49809;47.418;19.080;2023-11-19T02:06:19;11.65;;;5.10;;
63653;SDS011;49809;47.418;19.080;2023-11-19T02:09:44;12.75;;;5.87;;
63653;SDS011;49809;47.418;19.080;2023-11-19T02:13:07;11.68;;;5.70;;
63653;SDS011;49809;47.418;19.080;2023-11-19T02:16:57;10.10;;;5.37;;
63653;SDS011;49809;47.418;19.080;2023-11-19T02:20:20;9.70;;;5.45;;
63653;SDS011;49809;47.418;19.080;2023-11-19T02:23:45;12.43;;;5.62;;
63653;SDS011;49809;47.418;19.080;2023-11-19T02:28:02;11.12;;;5.65;;
63653;SDS011;49809;47.418;19.080;2023-11-19T02:31:23;11.07;;;6.10;;
63653;SDS011;49809;47.418;19.080;2023-11-19T02:38:42;13.13;;;5.55;;
63653;SDS011;49809;47.418;19.080;2023-11-19T02:42:09;13.30;;;5.70;;
63653;SDS011;49809;47.418;19.080;2023-11-19T02:45:54;14.30;;;5.75;;
63653;SDS011;49809;47.418;19.080;2023-11-19T02:53:22;14.15;;;6.22;;
63653;SDS011;49809;47.418;19.080;2023-11-19T02:56:57;12.43;;;5.43;;
63653;SDS011;49809;47.418;19.080;2023-11-19T03:00:28;13.62;;;5.82;;
63653;SDS011;49809;47.418;19.080;2023-11-19T03:04:03;15.82;;;6.65;;
63653;SDS011;49809;47.418;19.080;2023-11-19T03:07:29;15.10;;;7.05;;
63653;SDS011;49809;47.418;19.080;2023-11-19T03:11:16;14.23;;;6.28;;
63653;SDS011;49809;47.418;19.080;2023-11-19T03:14:23;13.98;;;6.18;;
63653;SDS011;49809;47.418;19.080;2023-11-19T03:17:27;12.70;;;6.68;;
63653;SDS011;49809;47.418;19.080;2023-11-19T03:20:34;14.65;;;6.93;;
63653;SDS011;49809;47.418;19.080;2023-11-19T03:23:38;13.75;;;5.97;;
63653;SDS011;49809;47.418;19.080;2023-11-19T03:26:48;16.48;;;7.25;;
63653;SDS011;49809;47.418;19.080;2023-11-19T03:29:55;13.75;;;6.22;;
63653;SDS011;49809;47.418;19.080;2023-11-19T03:33:01;13.70;;;6.60;;
63653;SDS011;49809;47.418;19.080;2023-11-19T03:36:13;15.70;;;6.80;;
63653;SDS011;49809;47.418;19.080;2023-11-19T03:39:18;17.62;;;6.82;;
63653;SDS011;49809;47.418;19.080;2023-11-19T03:42:22;15.93;;;6.95;;
63653;SDS011;49809;47.418;19.080;2023-11-19T03:45:25;13.27;;;6.93;;
63653;SDS011;49809;47.418;19.080;2023-11-19T03:48:29;15.90;;;7.07;;
63653;SDS011;49809;47.418;19.080;2023-11-19T03:51:34;13.18;;;6.37;;
63653;SDS011;49809;47.418;19.080;2023-11-19T03:54:59;13.18;;;6.55;;
63653;SDS011;49809;47.418;19.080;2023-11-19T03:58:04;15.10;;;7.20;;
63653;SDS011;49809;47.418;19.080;2023-11-19T04:01:11;15.48;;;6.75;;
63653;SDS011;49809;47.418;19.080;2023-11-19T04:04:21;15.15;;;6.30;;
63653;SDS011;49809;47.418;19.080;2023-11-19T04:07:24;11.80;;;6.35;;
63653;SDS011;49809;47.418;19.080;2023-11-19T04:10:28;14.55;;;6.12;;
63653;SDS011;49809;47.418;19.080;2023-11-19T04:13:32;13.88;;;5.85;;
63653;SDS011;49809;47.418;19.080;2023-11-19T04:16:39;14.93;;;6.87;;
63653;SDS011;49809;47.418;19.080;2023-11-19T04:19:45;12.40;;;6.32;;
63653;SDS011;49809;47.418;19.080;2023-11-19T04:22:49;15.25;;;7.45;;
63653;SDS011;49809;47.418;19.080;2023-11-19T04:25:53;13.98;;;6.57;;
63653;SDS011;49809;47.418;19.080;2023-11-19T04:28:57;14.43;;;6.75;;
63653;SDS011;49809;47.418;19.080;2023-11-19T04:32:02;13.80;;;6.50;;
63653;SDS011;49809;47.418;19.080;2023-11-19T04:35:08;15.63;;;7.77;;
63653;SDS011;49809;47.418;19.080;2023-11-19T04:38:37;14.87;;;6.95;;
63653;SDS011;49809;47.418;19.080;2023-11-19T04:44:57;14.13;;;6.28;;
63653;SDS011;49809;47.418;19.080;2023-11-19T04:48:01;13.73;;;6.85;;
63653;SDS011;49809;47.418;19.080;2023-11-19T04:51:14;15.45;;;6.60;;
63653;SDS011;49809;47.418;19.080;2023-11-19T04:54:43;14.52;;;6.37;;
63653;SDS011;49809;47.418;19.080;2023-11-19T04:57:48;14.93;;;7.05;;
63653;SDS011;49809;47.418;19.080;2023-11-19T05:00:53;14.45;;;6.87;;
63653;SDS011;49809;47.418;19.080;2023-11-19T05:04:20;13.45;;;6.15;;
63653;SDS011;49809;47.418;19.080;2023-11-19T05:07:25;15.73;;;7.28;;
63653;SDS011;49809;47.418;19.080;2023-11-19T05:10:29;14.75;;;7.00;;
63653;SDS011;49809;47.418;19.080;2023-11-19T05:13:32;15.73;;;7.53;;
63653;SDS011;49809;47.418;19.080;2023-11-19T05:16:38;16.48;;;7.90;;
63653;SDS011;49809;47.418;19.080;2023-11-19T05:19:43;21.23;;;8.35;;
63653;SDS011;49809;47.418;19.080;2023-11-19T05:23:02;18.85;;;8.55;;
63653;SDS011;49809;47.418;19.080;2023-11-19T05:26:16;16.00;;;8.48;;
63653;SDS011;49809;47.418;19.080;2023-11-19T05:29:23;19.55;;;8.20;;
63653;SDS011;49809;47.418;19.080;2023-11-19T05:32:28;16.35;;;7.82;;
63653;SDS011;49809;47.418;19.080;2023-11-19T05:35:30;16.52;;;6.97;;
63653;SDS011;49809;47.418;19.080;2023-11-19T05:38:35;16.55;;;8.00;;
63653;SDS011;49809;47.418;19.080;2023-11-19T05:42:00;14.43;;;7.22;;
63653;SDS011;49809;47.418;19.080;2023-11-19T05:45:05;17.20;;;8.07;;
63653;SDS011;49809;47.418;19.080;2023-11-19T05:48:22;18.87;;;8.75;;
63653;SDS011;49809;47.418;19.080;2023-11-19T05:51:28;27.25;;;10.70;;
63653;SDS011;49809;47.418;19.080;2023-11-19T05:54:32;26.75;;;11.48;;
63653;SDS011;49809;47.418;19.080;2023-11-19T05:58:00;23.60;;;10.43;;
63653;SDS011;49809;47.418;19.080;2023-11-19T06:01:03;22.45;;;10.07;;
63653;SDS011;49809;47.418;19.080;2023-11-19T06:04:09;24.87;;;10.52;;
63653;SDS011;49809;47.418;19.080;2023-11-19T06:07:14;26.70;;;11.63;;
63653;SDS011;49809;47.418;19.080;2023-11-19T06:10:44;26.90;;;11.27;;
63653;SDS011;49809;47.418;19.080;2023-11-19T06:13:52;25.73;;;11.98;;
63653;SDS011;49809;47.418;19.080;2023-11-19T06:16:59;23.92;;;11.23;;
63653;SDS011;49809;47.418;19.080;2023-11-19T06:20:04;23.52;;;11.75;;
63653;SDS011;49809;47.418;19.080;2023-11-19T06:23:31;26.43;;;11.67;;
63653;SDS011;49809;47.418;19.080;2023-11-19T06:26:34;20.50;;;10.45;;
63653;SDS011;49809;47.418;19.080;2023-11-19T06:29:38;22.35;;;10.05;;
63653;SDS011;49809;47.418;19.080;2023-11-19T06:32:43;20.17;;;10.35;;
63653;SDS011;49809;47.418;19.080;2023-11-19T06:35:49;22.80;;;11.20;;
63653;SDS011;49809;47.418;19.080;2023-11-19T06:38:58;17.90;;;9.20;;
63653;SDS011;49809;47.418;19.080;2023-11-19T06:42:24;25.08;;;11.18;;
63653;SDS011;49809;47.418;19.080;2023-11-19T06:45:47;19.90;;;9.38;;
63653;SDS011;49809;47.418;19.080;2023-11-19T06:48:51;22.30;;;10.10;;
63653;SDS011;49809;47.418;19.080;2023-11-19T06:52:16;20.42;;;10.10;;
63653;SDS011;49809;47.418;19.080;2023-11-19T06:55:42;19.20;;;9.90;;
63653;SDS011;49809;47.418;19.080;2023-11-19T06:58:45;18.92;;;9.15;;
63653;SDS011;49809;47.418;19.080;2023-11-19T07:01:51;22.80;;;8.85;;
63653;SDS011;49809;47.418;19.080;2023-11-19T07:04:54;18.33;;;9.50;;
63653;SDS011;49809;47.418;19.080;2023-11-19T07:08:22;18.17;;;8.55;;
63653;SDS011;49809;47.418;19.080;2023-11-19T07:11:53;16.62;;;8.73;;
63653;SDS011;49809;47.418;19.080;2023-11-19T07:15:16;16.12;;;8.68;;
63653;SDS011;49809;47.418;19.080;2023-11-19T07:18:20;17.77;;;9.02;;
63653;SDS011;49809;47.418;19.080;2023-11-19T07:21:26;20.80;;;9.18;;
63653;SDS011;49809;47.418;19.080;2023-11-19T07:24:31;20.20;;;10.00;;
63653;SDS011;49809;47.418;19.080;2023-11-19T07:27:39;23.02;;;9.95;;
63653;SDS011;49809;47.418;19.080;2023-11-19T07:31:22;18.87;;;8.23;;
63653;SDS011;49809;47.418;19.080;2023-11-19T07:34:29;18.52;;;8.77;;
63653;SDS011;49809;47.418;19.080;2023-11-19T07:37:34;17.95;;;9.35;;
63653;SDS011;49809;47.418;19.080;2023-11-19T07:40:40;16.67;;;8.67;;
63653;SDS011;49809;47.418;19.080;2023-11-19T07:44:02;16.20;;;8.10;;
63653;SDS011;49809;47.418;19.080;2023-11-19T07:47:06;14.35;;;7.78;;
63653;SDS011;49809;47.418;19.080;2023-11-19T07:50:10;23.85;;;8.02;;
63653;SDS011;49809;47.418;19.080;2023-11-19T07:53:16;14.10;;;7.53;;
63653;SDS011;49809;47.418;19.080;2023-11-19T07:56:19;15.38;;;7.87;;
63653;SDS011;49809;47.418;19.080;2023-11-19T07:59:23;17.58;;;9.50;;
63653;SDS011;49809;47.418;19.080;2023-11-19T08:02:30;18.98;;;8.65;;
63653;SDS011;49809;47.418;19.080;2023-11-19T08:05:43;16.33;;;8.00;;
63653;SDS011;49809;47.418;19.080;2023-11-19T08:08:54;16.40;;;8.18;;
63653;SDS011;49809;47.418;19.080;2023-11-19T08:11:57;19.52;;;8.70;;
63653;SDS011;49809;47.418;19.080;2023-11-19T08:15:05;17.80;;;8.80;;
63653;SDS011;49809;47.418;19.080;2023-11-19T08:18:09;17.30;;;8.10;;
63653;SDS011;49809;47.418;19.080;2023-11-19T08:21:14;14.27;;;7.80;;
63653;SDS011;49809;47.418;19.080;2023-11-19T08:24:17;19.08;;;8.00;;
63653;SDS011;49809;47.418;19.080;2023-11-19T08:27:21;11.63;;;6.62;;
63653;SDS011;49809;47.418;19.080;2023-11-19T08:30:29;13.00;;;7.03;;
63653;SDS011;49809;47.418;19.080;2023-11-19T08:33:37;13.20;;;6.53;;
63653;SDS011;49809;47.418;19.080;2023-11-19T08:36:41;13.80;;;7.43;;
63653;SDS011;49809;47.418;19.080;2023-11-19T08:39:44;13.85;;;7.12;;
63653;SDS011;49809;47.418;19.080;2023-11-19T08:42:54;13.23;;;6.70;;
63653;SDS011;49809;47.418;19.080;2023-11-19T08:45:57;15.25;;;7.05;;
63653;SDS011;49809;47.418;19.080;2023-11-19T08:49:03;12.98;;;7.03;;
63653;SDS011;49809;47.418;19.080;2023-11-19T08:52:06;14.57;;;7.07;;
63653;SDS011;49809;47.418;19.080;2023-11-19T08:55:15;14.52;;;7.43;;
63653;SDS011;49809;47.418;19.080;2023-11-19T08:58:37;13.38;;;7.82;;
63653;SDS011;49809;47.418;19.080;2023-11-19T09:01:43;14.00;;;7.60;;
63653;SDS011;49809;47.418;19.080;2023-11-19T09:04:52;14.63;;;8.00;;
63653;SDS011;49809;47.418;19.080;2023-11-19T09:08:35;13.60;;;7.32;;
63653;SDS011;49809;47.418;19.080;2023-11-19T09:11:41;16.25;;;7.82;;
63653;SDS011;49809;47.418;19.080;2023-11-19T09:14:57;21.37;;;9.32;;
63653;SDS011;49809;47.418;19.080;2023-11-19T09:17:59;19.20;;;9.45;;
63653;SDS011;49809;47.418;19.080;2023-11-19T09:21:03;15.70;;;8.88;;
63653;SDS011;49809;47.418;19.080;2023-11-19T09:24:08;18.02;;;9.02;;
63653;SDS011;49809;47.418;19.080;2023-11-19T09:27:14;17.23;;;8.90;;
63653;SDS011;49809;47.418;19.080;2023-11-19T09:30:17;14.13;;;7.93;;
63653;SDS011;49809;47.418;19.080;2023-11-19T09:33:23;14.90;;;8.23;;
63653;SDS011;49809;47.418;19.080;2023-11-19T09:36:29;14.70;;;8.77;;
63653;SDS011;49809;47.418;19.080;2023-11-19T09:39:32;16.73;;;8.95;;
63653;SDS011;49809;47.418;19.080;2023-11-19T09:42:42;17.25;;;8.52;;
63653;SDS011;49809;47.418;19.080;2023-11-19T09:46:15;14.70;;;8.15;;
63653;SDS011;49809;47.418;19.080;2023-11-19T09:49:20;17.92;;;9.13;;
63653;SDS011;49809;47.418;19.080;2023-11-19T09:52:29;15.15;;;9.35;;
63653;SDS011;49809;47.418;19.080;2023-11-19T09:55:31;17.20;;;9.32;;
63653;SDS011;49809;47.418;19.080;2023-11-19T09:58:35;15.63;;;9.32;;
63653;SDS011;49809;47.418;19.080;2023-11-19T10:01:38;21.52;;;9.63;;
63653;SDS011;49809;47.418;19.080;2023-11-19T10:04:42;16.17;;;8.45;;
63653;SDS011;49809;47.418;19.080;2023-11-19T10:07:48;15.68;;;8.43;;
63653;SDS011;49809;47.418;19.080;2023-11-19T10:10:52;15.43;;;8.57;;
63653;SDS011;49809;47.418;19.080;2023-11-19T10:13:55;16.25;;;9.30;;
63653;SDS011;49809;47.418;19.080;2023-11-19T10:17:00;18.77;;;9.68;;
63653;SDS011;49809;47.418;19.080;2023-11-19T10:20:06;20.60;;;11.60;;
63653;SDS011;49809;47.418;19.080;2023-11-19T10:23:12;23.02;;;10.00;;
63653;SDS011;49809;47.418;19.080;2023-11-19T10:26:14;22.45;;;9.88;;
63653;SDS011;49809;47.418;19.080;2023-11-19T10:29:23;16.77;;;8.98;;
63653;SDS011;49809;47.418;19.080;2023-11-19T10:32:26;16.35;;;8.75;;
63653;SDS011;49809;47.418;19.080;2023-11-19T10:35:30;14.93;;;8.07;;
63653;SDS011;49809;47.418;19.080;2023-11-19T10:38:35;18.83;;;8.55;;
63653;SDS011;49809;47.418;19.080;2023-11-19T10:42:14;14.23;;;8.23;;
63653;SDS011;49809;47.418;19.080;2023-11-19T10:45:23;19.55;;;9.82;;
63653;SDS011;49809;47.418;19.080;2023-11-19T10:48:27;21.27;;;10.07;;
63653;SDS011;49809;47.418;19.080;2023-11-19T10:51:30;17.30;;;10.10;;
63653;SDS011;49809;47.418;19.080;2023-11-19T10:54:36;17.03;;;9.17;;
63653;SDS011;49809;47.418;19.080;2023-11-19T10:57:46;14.90;;;8.48;;
63653;SDS011;49809;47.418;19.080;2023-11-19T11:00:57;21.75;;;7.80;;
63653;SDS011;49809;47.418;19.080;2023-11-19T11:04:10;13.80;;;7.80;;
63653;SDS011;49809;47.418;19.080;2023-11-19T11:07:26;19.20;;;9.23;;
63653;SDS011;49809;47.418;19.080;2023-11-19T11:14:16;16.87;;;8.60;;
63653;SDS011;49809;47.418;19.080;2023-11-19T11:17:24;18.30;;;8.52;;
63653;SDS011;49809;47.418;19.080;2023-11-19T11:20:46;21.83;;;9.88;;
63653;SDS011;49809;47.418;19.080;2023-11-19T11:27:42;17.55;;;9.05;;
63653;SDS011;49809;47.418;19.080;2023-11-19T11:38:01;32.80;;;13.27;;
63653;SDS011;49809;47.418;19.080;2023-11-19T11:41:19;21.92;;;10.50;;
63653;SDS011;49809;47.418;19.080;2023-11-19T11:48:09;15.13;;;8.43;;
63653;SDS011;49809;47.418;19.080;2023-11-19T11:51:14;17.30;;;9.20;;
63653;SDS011;49809;47.418;19.080;2023-11-19T11:54:39;14.15;;;7.80;;
63653;SDS011;49809;47.418;19.080;2023-11-19T11:58:00;19.42;;;9.13;;
63653;SDS011;49809;47.418;19.080;2023-11-19T12:01:04;13.70;;;7.78;;
63653;SDS011;49809;47.418;19.080;2023-11-19T12:04:12;20.15;;;9.90;;
63653;SDS011;49809;47.418;19.080;2023-11-19T12:07:25;16.75;;;8.85;;
63653;SDS011;49809;47.418;19.080;2023-11-19T12:10:29;22.30;;;10.88;;
63653;SDS011;49809;47.418;19.080;2023-11-19T12:13:56;16.33;;;8.65;;
63653;SDS011;49809;47.418;19.080;2023-11-19T12:17:15;15.23;;;8.15;;
63653;SDS011;49809;47.418;19.080;2023-11-19T12:20:36;16.10;;;8.10;;
63653;SDS011;49809;47.418;19.080;2023-11-19T12:23:46;13.75;;;7.50;;
63653;SDS011;49809;47.418;19.080;2023-11-19T12:26:51;13.88;;;6.62;;
63653;SDS011;49809;47.418;19.080;2023-11-19T12:29:59;14.30;;;7.12;;
63653;SDS011;49809;47.418;19.080;2023-11-19T12:33:07;19.80;;;8.20;;
63653;SDS011;49809;47.418;19.080;2023-11-19T12:36:18;13.60;;;7.18;;
63653;SDS011;49809;47.418;19.080;2023-11-19T12:39:30;13.75;;;6.45;;
63653;SDS011;49809;47.418;19.080;2023-11-19T12:42:38;10.18;;;6.55;;
63653;SDS011;49809;47.418;19.080;2023-11-19T12:45:46;13.02;;;6.57;;
63653;SDS011;49809;47.418;19.080;2023-11-19T12:48:52;15.43;;;6.87;;
63653;SDS011;49809;47.418;19.080;2023-11-19T12:51:58;12.80;;;7.18;;
63653;SDS011;49809;47.418;19.080;2023-11-19T12:58:09;15.80;;;7.07;;
63653;SDS011;49809;47.418;19.080;2023-11-19T13:01:15;14.63;;;6.20;;
63653;SDS011;49809;47.418;19.080;2023-11-19T13:04:27;10.77;;;5.95;;
63653;SDS011;49809;47.418;19.080;2023-11-19T13:07:37;15.90;;;8.45;;
63653;SDS011;49809;47.418;19.080;2023-11-19T13:10:51;11.32;;;6.60;;
63653;SDS011;49809;47.418;19.080;2023-11-19T13:14:00;11.70;;;6.28;;
63653;SDS011;49809;47.418;19.080;2023-11-19T13:17:07;14.13;;;6.87;;
63653;SDS011;49809;47.418;19.080;2023-11-19T13:20:11;14.60;;;7.40;;
63653;SDS011;49809;47.418;19.080;2023-11-19T13:23:23;11.88;;;6.50;;
63653;SDS011;49809;47.418;19.080;2023-11-19T13:26:27;10.60;;;5.55;;
63653;SDS011;49809;47.418;19.080;2023-11-19T13:29:30;10.05;;;5.07;;
63653;SDS011;49809;47.418;19.080;2023-11-19T13:32:46;9.38;;;5.53;;
63653;SDS011;49809;47.418;19.080;2023-11-19T13:35:50;10.85;;;5.30;;
63653;SDS011;49809;47.418;19.080;2023-11-19T13:38:55;11.05;;;5.57;;
63653;SDS011;49809;47.418;19.080;2023-11-19T13:42:02;12.93;;;5.82;;
63653;SDS011;49809;47.418;19.080;2023-11-19T13:45:25;10.05;;;5.90;;
63653;SDS011;49809;47.418;19.080;2023-11-19T13:48:28;7.85;;;5.03;;
63653;SDS011;49809;47.418;19.080;2023-11-19T13:51:37;13.43;;;6.57;;
63653;SDS011;49809;47.418;19.080;2023-11-19T13:54:44;11.85;;;6.55;;
63653;SDS011;49809;47.418;19.080;2023-11-19T13:57:48;11.23;;;6.10;;
63653;SDS011;49809;47.418;19.080;2023-11-19T14:00:51;9.23;;;5.43;;
63653;SDS011;49809;47.418;19.080;2023-11-19T14:03:55;10.70;;;5.82;;
63653;SDS011;49809;47.418;19.080;2023-11-19T14:06:58;11.68;;;6.20;;
63653;SDS011;49809;47.418;19.080;2023-11-19T14:10:03;9.38;;;5.20;;
63653;SDS011;49809;47.418;19.080;2023-11-19T14:13:08;11.00;;;6.50;;
63653;SDS011;49809;47.418;19.080;2023-11-19T14:16:12;14.65;;;6.97;;
63653;SDS011;49809;47.418;19.080;2023-11-19T14:19:18;12.40;;;6.60;;
63653;SDS011;49809;47.418;19.080;2023-11-19T14:22:21;10.90;;;5.93;;
63653;SDS011;49809;47.418;19.080;2023-11-19T14:25:25;11.93;;;5.85;;
63653;SDS011;49809;47.418;19.080;2023-11-19T14:28:31;14.85;;;8.15;;
63653;SDS011;49809;47.418;19.080;2023-11-19T14:31:38;12.05;;;6.47;;
63653;SDS011;49809;47.418;19.080;2023-11-19T14:34:44;14.75;;;8.15;;
63653;SDS011;49809;47.418;19.080;2023-11-19T14:37:51;14.13;;;8.02;;
63653;SDS011;49809;47.418;19.080;2023-11-19T14:41:27;12.57;;;6.60;;
63653;SDS011;49809;47.418;19.080;2023-11-19T14:44:59;12.45;;;7.15;;
63653;SDS011;49809;47.418;19.080;2023-11-19T14:48:03;15.55;;;8.52;;
63653;SDS011;49809;47.418;19.080;2023-11-19T14:51:10;13.18;;;8.07;;
63653;SDS011;49809;47.418;19.080;2023-11-19T14:54:20;16.25;;;9.05;;
63653;SDS011;49809;47.418;19.080;2023-11-19T14:57:26;19.42;;;10.68;;
63653;SDS011;49809;47.418;19.080;2023-11-19T15:00:29;16.45;;;8.38;;
63653;SDS011;49809;47.418;19.080;2023-11-19T15:03:33;18.70;;;8.50;;
63653;SDS011;49809;47.418;19.080;2023-11-19T15:07:09;17.25;;;8.48;;
63653;SDS011;49809;47.418;19.080;2023-11-19T15:10:23;13.13;;;7.70;;
63653;SDS011;49809;47.418;19.080;2023-11-19T15:13:56;12.18;;;6.43;;
63653;SDS011;49809;47.418;19.080;2023-11-19T15:17:00;14.38;;;6.72;;
63653;SDS011;49809;47.418;19.080;2023-11-19T15:20:04;12.27;;;7.22;;
63653;SDS011;49809;47.418;19.080;2023-11-19T15:23:10;14.05;;;7.22;;
63653;SDS011;49809;47.418;19.080;2023-11-19T15:26:33;13.98;;;7.28;;
63653;SDS011;49809;47.418;19.080;2023-11-19T15:29:43;17.17;;;8.90;;
63653;SDS011;49809;47.418;19.080;2023-11-19T15:32:46;15.20;;;8.43;;
63653;SDS011;49809;47.418;19.080;2023-11-19T15:36:10;16.65;;;7.97;;
63653;SDS011;49809;47.418;19.080;2023-11-19T15:39:53;21.62;;;11.52;;
63653;SDS011;49809;47.418;19.080;2023-11-19T15:43:19;21.55;;;11.50;;
63653;SDS011;49809;47.418;19.080;2023-11-19T15:46:47;20.70;;;11.48;;
63653;SDS011;49809;47.418;19.080;2023-11-19T15:50:13;17.90;;;10.43;;
63653;SDS011;49809;47.418;19.080;2023-11-19T15:53:21;20.33;;;10.85;;
63653;SDS011;49809;47.418;19.080;2023-11-19T15:56:46;20.35;;;12.10;;
63653;SDS011;49809;47.418;19.080;2023-11-19T16:00:22;23.38;;;12.68;;
63653;SDS011;49809;47.418;19.080;2023-11-19T16:03:26;28.55;;;12.57;;
63653;SDS011;49809;47.418;19.080;2023-11-19T16:07:05;21.67;;;12.35;;
63653;SDS011;49809;47.418;19.080;2023-11-19T16:10:37;24.73;;;12.57;;
63653;SDS011;49809;47.418;19.080;2023-11-19T16:13:48;22.80;;;13.02;;
63653;SDS011;49809;47.418;19.080;2023-11-19T16:17:35;26.75;;;12.55;;
63653;SDS011;49809;47.418;19.080;2023-11-19T16:20:41;24.37;;;12.45;;
63653;SDS011;49809;47.418;19.080;2023-11-19T16:23:47;21.48;;;11.75;;
63653;SDS011;49809;47.418;19.080;2023-11-19T16:27:30;19.80;;;10.43;;
63653;SDS011;49809;47.418;19.080;2023-11-19T16:30:34;17.52;;;9.82;;
63653;SDS011;49809;47.418;19.080;2023-11-19T16:33:48;20.75;;;10.75;;
63653;SDS011;49809;47.418;19.080;2023-11-19T16:37:12;24.08;;;12.00;;
63653;SDS011;49809;47.418;19.080;2023-11-19T16:40:37;31.70;;;16.08;;
63653;SDS011;49809;47.418;19.080;2023-11-19T16:44:05;31.52;;;15.25;;
63653;SDS011;49809;47.418;19.080;2023-11-19T16:47:41;31.33;;;14.65;;
63653;SDS011;49809;47.418;19.080;2023-11-19T16:51:12;26.55;;;13.93;;
63653;SDS011;49809;47.418;19.080;2023-11-19T16:54:58;33.00;;;16.40;;
63653;SDS011;49809;47.418;19.080;2023-11-19T16:58:08;39.75;;;18.62;;
63653;SDS011;49809;47.418;19.080;2023-11-19T17:05:01;27.08;;;14.63;;
63653;SDS011;49809;47.418;19.080;2023-11-19T17:08:27;31.17;;;14.75;;
63653;SDS011;49809;47.418;19.080;2023-11-19T17:12:02;26.73;;;13.62;;
63653;SDS011;49809;47.418;19.080;2023-11-19T17:15:08;31.62;;;15.13;;
63653;SDS011;49809;47.418;19.080;2023-11-19T17:18:33;34.97;;;16.77;;
63653;SDS011;49809;47.418;19.080;2023-11-19T17:21:36;36.95;;;18.37;;
63653;SDS011;49809;47.418;19.080;2023-11-19T17:24:40;40.78;;;19.65;;
63653;SDS011;49809;47.418;19.080;2023-11-19T17:27:46;35.15;;;17.67;;
63653;SDS011;49809;47.418;19.080;2023-11-19T17:30:50;32.08;;;16.45;;
63653;SDS011;49809;47.418;19.080;2023-11-19T17:34:15;30.83;;;16.77;;
63653;SDS011;49809;47.418;19.080;2023-11-19T17:37:58;36.03;;;17.27;;
63653;SDS011;49809;47.418;19.080;2023-11-19T17:41:21;36.55;;;18.37;;
63653;SDS011;49809;47.418;19.080;2023-11-19T17:44:49;45.50;;;19.42;;
63653;SDS011;49809;47.418;19.080;2023-11-19T17:48:36;39.08;;;19.23;;
63653;SDS011;49809;47.418;19.080;2023-11-19T17:52:07;39.45;;;19.90;;
63653;SDS011;49809;47.418;19.080;2023-11-19T17:55:14;46.95;;;21.73;;
63653;SDS011;49809;47.418;19.080;2023-11-19T17:58:39;42.10;;;20.65;;
63653;SDS011;49809;47.418;19.080;2023-11-19T18:02:01;40.20;;;19.73;;
63653;SDS011;49809;47.418;19.080;2023-11-19T18:05:36;38.20;;;19.45;;
63653;SDS011;49809;47.418;19.080;2023-11-19T18:08:41;35.80;;;18.60;;
63653;SDS011;49809;47.418;19.080;2023-11-19T18:12:09;43.55;;;22.25;;
63653;SDS011;49809;47.418;19.080;2023-11-19T18:15:32;50.95;;;23.65;;
63653;SDS011;49809;47.418;19.080;2023-11-19T18:18:39;51.53;;;25.58;;
63653;SDS011;49809;47.418;19.080;2023-11-19T18:22:13;50.95;;;24.83;;
63653;SDS011;49809;47.418;19.080;2023-11-19T18:25:20;54.08;;;26.02;;
63653;SDS011;49809;47.418;19.080;2023-11-19T18:28:26;55.55;;;25.73;;
63653;SDS011;49809;47.418;19.080;2023-11-19T18:31:59;48.78;;;25.23;;
63653;SDS011;49809;47.418;19.080;2023-11-19T18:35:26;53.85;;;25.50;;
63653;SDS011;49809;47.418;19.080;2023-11-19T18:38:33;48.25;;;25.17;;
63653;SDS011;49809;47.418;19.080;2023-11-19T18:42:29;49.45;;;24.92;;
63653;SDS011;49809;47.418;19.080;2023-11-19T18:45:53;54.00;;;26.00;;
63653;SDS011;49809;47.418;19.080;2023-11-19T18:49:18;57.28;;;24.95;;
63653;SDS011;49809;47.418;19.080;2023-11-19T18:52:42;208.25;;;61.42;;
63653;SDS011;49809;47.418;19.080;2023-11-19T18:56:08;67.78;;;30.12;;
63653;SDS011;49809;47.418;19.080;2023-11-19T18:59:32;53.50;;;27.23;;
63653;SDS011;49809;47.418;19.080;2023-11-19T19:02:56;52.72;;;26.05;;
63653;SDS011;49809;47.418;19.080;2023-11-19T19:06:32;48.78;;;24.87;;
63653;SDS011;49809;47.418;19.080;2023-11-19T19:10:13;46.25;;;22.13;;
63653;SDS011;49809;47.418;19.080;2023-11-19T19:14:04;45.17;;;22.20;;
63653;SDS011;49809;47.418;19.080;2023-11-19T19:18:16;45.45;;;23.10;;
63653;SDS011;49809;47.418;19.080;2023-11-19T19:21:59;42.88;;;22.37;;
63653;SDS011;49809;47.418;19.080;2023-11-19T19:25:43;49.15;;;22.67;;
63653;SDS011;49809;47.418;19.080;2023-11-19T19:29:06;44.45;;;21.08;;
63653;SDS011;49809;47.418;19.080;2023-11-19T19:32:50;60.10;;;28.70;;
63653;SDS011;49809;47.418;19.080;2023-11-19T19:36:37;72.32;;;33.25;;
63653;SDS011;49809;47.418;19.080;2023-11-19T19:40:15;48.08;;;21.50;;
63653;SDS011;49809;47.418;19.080;2023-11-19T19:44:02;38.50;;;18.33;;
63653;SDS011;49809;47.418;19.080;2023-11-19T19:47:31;39.05;;;19.20;;